Terminal Aerodrome Forecast
Issued by NWS Wilmington, OH

Current Version | Previous Version | Text Only | Print | Product List | Glossary Off
Versions: 1 2 3 4 5 6 7 8 9 10 11 12 13 14 15

000
FTUS41 KILN 181720
TAFCMH
TAF
KCMH 181720Z 1818/1918 27011G18KT P6SM BKN040
     FM190000 27006KT P6SM SCT035
     FM190600 19004KT P6SM FEW035 SCT250
     FM191500 23010KT P6SM -SHRA OVC040=

USA.gov is the U.S. government's official web portal to all federal, state and local government web resources and services.